sensor_id;sensor_type;location;lat;lon;timestamp;temperature;humidity
15203;DHT22;7702;51.046;5.184;2024-03-23T00:55:42;7.10;99.90
15203;DHT22;7702;51.046;5.184;2024-03-23T00:58:08;7.10;99.90
15203;DHT22;7702;51.046;5.184;2024-03-23T01:00:34;7.10;99.90
15203;DHT22;7702;51.046;5.184;2024-03-23T01:02:59;7.10;99.90
15203;DHT22;7702;51.046;5.184;2024-03-23T01:05:25;7.00;99.90
15203;DHT22;7702;51.046;5.184;2024-03-23T01:07:51;7.00;99.90
15203;DHT22;7702;51.046;5.184;2024-03-23T01:10:16;7.10;99.90
15203;DHT22;7702;51.046;5.184;2024-03-23T01:12:42;7.00;99.90
15203;DHT22;7702;51.046;5.184;2024-03-23T01:15:08;7.00;99.90
15203;DHT22;7702;51.046;5.184;2024-03-23T01:17:34;7.00;99.90
15203;DHT22;7702;51.046;5.184;2024-03-23T01:19:59;7.00;99.90
15203;DHT22;7702;51.046;5.184;2024-03-23T01:22:25;6.90;99.90
15203;DHT22;7702;51.046;5.184;2024-03-23T01:24:51;6.90;99.90
15203;DHT22;7702;51.046;5.184;2024-03-23T01:27:17;6.90;99.90
15203;DHT22;7702;51.046;5.184;2024-03-23T01:29:43;6.90;99.90
15203;DHT22;7702;51.046;5.184;2024-03-23T01:32:09;6.80;99.90
15203;DHT22;7702;51.046;5.184;2024-03-23T01:34:34;6.80;99.90
15203;DHT22;7702;51.046;5.184;2024-03-23T01:37:00;6.80;99.90
15203;DHT22;7702;51.046;5.184;2024-03-23T01:39:26;6.90;99.90
15203;DHT22;7702;51.046;5.184;2024-03-23T01:41:52;6.80;99.90
15203;DHT22;7702;51.046;5.184;2024-03-23T01:44:17;6.80;99.90
15203;DHT22;7702;51.046;5.184;2024-03-23T01:46:43;6.80;99.90
15203;DHT22;7702;51.046;5.184;2024-03-23T01:49:10;6.70;99.90
15203;DHT22;7702;51.046;5.184;2024-03-23T01:51:36;6.70;99.90
15203;DHT22;7702;51.046;5.184;2024-03-23T01:54:03;6.70;99.90
15203;DHT22;7702;51.046;5.184;2024-03-23T01:56:35;6.70;99.90
15203;DHT22;7702;51.046;5.184;2024-03-23T01:59:02;6.80;99.90
15203;DHT22;7702;51.046;5.184;2024-03-23T02:01:28;6.70;99.90
15203;DHT22;7702;51.046;5.184;2024-03-23T02:03:54;6.80;99.90
15203;DHT22;7702;51.046;5.184;2024-03-23T02:06:20;6.90;99.90
15203;DHT22;7702;51.046;5.184;2024-03-23T02:08:46;6.80;99.90
15203;DHT22;7702;51.046;5.184;2024-03-23T02:11:12;6.70;99.90
15203;DHT22;7702;51.046;5.184;2024-03-23T02:13:37;6.80;99.90
15203;DHT22;7702;51.046;5.184;2024-03-23T02:16:05;6.80;99.90
15203;DHT22;7702;51.046;5.184;2024-03-23T02:18:31;6.80;99.90
15203;DHT22;7702;51.046;5.184;2024-03-23T02:20:56;6.70;99.90
15203;DHT22;7702;51.046;5.184;2024-03-23T02:23:22;6.70;99.90
15203;DHT22;7702;51.046;5.184;2024-03-23T02:25:50;6.60;99.90
15203;DHT22;7702;51.046;5.184;2024-03-23T02:28:15;6.60;99.90
15203;DHT22;7702;51.046;5.184;2024-03-23T02:30:42;6.60;99.90
15203;DHT22;7702;51.046;5.184;2024-03-23T02:33:08;6.60;99.90
15203;DHT22;7702;51.046;5.184;2024-03-23T02:35:33;6.60;99.90
15203;DHT22;7702;51.046;5.184;2024-03-23T02:37:59;6.60;99.90
15203;DHT22;7702;51.046;5.184;2024-03-23T02:40:25;6.50;99.90
15203;DHT22;7702;51.046;5.184;2024-03-23T02:42:51;6.60;99.90
15203;DHT22;7702;51.046;5.184;2024-03-23T02:45:17;6.60;99.90
15203;DHT22;7702;51.046;5.184;2024-03-23T02:47:43;6.70;99.90
15203;DHT22;7702;51.046;5.184;2024-03-23T02:50:09;6.70;99.90
15203;DHT22;7702;51.046;5.184;2024-03-23T02:52:35;6.80;99.90
15203;DHT22;7702;51.046;5.184;2024-03-23T02:55:02;6.80;99.90
15203;DHT22;7702;51.046;5.184;2024-03-23T02:57:28;6.80;99.90
15203;DHT22;7702;51.046;5.184;2024-03-23T02:59:54;6.70;99.90
15203;DHT22;7702;51.046;5.184;2024-03-23T03:02:20;6.60;99.90
15203;DHT22;7702;51.046;5.184;2024-03-23T03:04:46;6.50;99.90
15203;DHT22;7702;51.046;5.184;2024-03-23T03:07:12;6.50;99.90
15203;DHT22;7702;51.046;5.184;2024-03-23T03:09:38;6.40;99.90
15203;DHT22;7702;51.046;5.184;2024-03-23T03:12:08;6.40;99.90
15203;DHT22;7702;51.046;5.184;2024-03-23T03:14:34;6.40;99.90
15203;DHT22;7702;51.046;5.184;2024-03-23T03:17:00;6.40;99.90
15203;DHT22;7702;51.046;5.184;2024-03-23T03:19:26;6.40;99.90
15203;DHT22;7702;51.046;5.184;2024-03-23T03:21:52;6.40;99.90
15203;DHT22;7702;51.046;5.184;2024-03-23T03:24:18;6.40;99.90
15203;DHT22;7702;51.046;5.184;2024-03-23T03:26:44;6.40;99.90
15203;DHT22;7702;51.046;5.184;2024-03-23T03:29:10;6.30;99.90
15203;DHT22;7702;51.046;5.184;2024-03-23T03:31:37;6.30;99.90
15203;DHT22;7702;51.046;5.184;2024-03-23T03:34:03;6.30;99.90
15203;DHT22;7702;51.046;5.184;2024-03-23T03:36:28;6.30;99.90
15203;DHT22;7702;51.046;5.184;2024-03-23T03:38:54;6.20;99.90
15203;DHT22;7702;51.046;5.184;2024-03-23T03:41:20;6.30;99.90
15203;DHT22;7702;51.046;5.184;2024-03-23T03:43:45;6.30;99.90
15203;DHT22;7702;51.046;5.184;2024-03-23T03:46:11;6.20;99.90
15203;DHT22;7702;51.046;5.184;2024-03-23T03:48:37;6.20;99.90
15203;DHT22;7702;51.046;5.184;2024-03-23T03:51:03;6.20;99.90
15203;DHT22;7702;51.046;5.184;2024-03-23T03:53:29;6.20;99.90
15203;DHT22;7702;51.046;5.184;2024-03-23T03:55:55;6.20;99.90
15203;DHT22;7702;51.046;5.184;2024-03-23T03:58:21;6.30;99.90
15203;DHT22;7702;51.046;5.184;2024-03-23T04:00:47;6.20;99.90
15203;DHT22;7702;51.046;5.184;2024-03-23T04:03:12;6.10;99.90
15203;DHT22;7702;51.046;5.184;2024-03-23T04:05:38;6.00;99.90
15203;DHT22;7702;51.046;5.184;2024-03-23T04:08:05;5.90;99.90
15203;DHT22;7702;51.046;5.184;2024-03-23T04:10:31;5.80;99.90
15203;DHT22;7702;51.046;5.184;2024-03-23T04:12:56;5.70;99.90
15203;DHT22;7702;51.046;5.184;2024-03-23T04:15:22;5.60;99.90
15203;DHT22;7702;51.046;5.184;2024-03-23T04:17:48;5.60;99.90
15203;DHT22;7702;51.046;5.184;2024-03-23T04:20:13;5.40;99.90
15203;DHT22;7702;51.046;5.184;2024-03-23T04:22:44;5.30;99.90
15203;DHT22;7702;51.046;5.184;2024-03-23T04:25:10;5.30;99.90
15203;DHT22;7702;51.046;5.184;2024-03-23T04:27:36;5.30;99.90
15203;DHT22;7702;51.046;5.184;2024-03-23T04:30:03;5.20;99.90
15203;DHT22;7702;51.046;5.184;2024-03-23T04:32:30;5.10;99.90
15203;DHT22;7702;51.046;5.184;2024-03-23T04:34:56;5.10;99.90
15203;DHT22;7702;51.046;5.184;2024-03-23T04:37:23;5.10;99.90
15203;DHT22;7702;51.046;5.184;2024-03-23T04:39:49;5.10;99.90
15203;DHT22;7702;51.046;5.184;2024-03-23T04:42:15;5.10;99.90
15203;DHT22;7702;51.046;5.184;2024-03-23T04:44:41;5.10;99.90
15203;DHT22;7702;51.046;5.184;2024-03-23T04:47:07;5.00;99.90
15203;DHT22;7702;51.046;5.184;2024-03-23T04:49:32;5.00;99.90
15203;DHT22;7702;51.046;5.184;2024-03-23T04:51:58;5.00;99.90
15203;DHT22;7702;51.046;5.184;2024-03-23T04:54:23;4.90;99.90
15203;DHT22;7702;51.046;5.184;2024-03-23T04:56:49;4.80;99.90
15203;DHT22;7702;51.046;5.184;2024-03-23T04:59:15;4.80;99.90
15203;DHT22;7702;51.046;5.184;2024-03-23T05:01:40;4.90;99.90
15203;DHT22;7702;51.046;5.184;2024-03-23T05:04:08;4.80;99.90
15203;DHT22;7702;51.046;5.184;2024-03-23T05:06:33;4.70;99.90
15203;DHT22;7702;51.046;5.184;2024-03-23T05:09:00;4.70;99.90
15203;DHT22;7702;51.046;5.184;2024-03-23T05:11:28;4.70;99.90
15203;DHT22;7702;51.046;5.184;2024-03-23T05:13:54;4.80;99.90
15203;DHT22;7702;51.046;5.184;2024-03-23T05:16:19;4.80;99.90
15203;DHT22;7702;51.046;5.184;2024-03-23T05:18:45;4.90;99.90
15203;DHT22;7702;51.046;5.184;2024-03-23T05:21:11;5.00;99.90
15203;DHT22;7702;51.046;5.184;2024-03-23T05:23:36;5.20;99.90
15203;DHT22;7702;51.046;5.184;2024-03-23T05:26:03;5.30;99.90
15203;DHT22;7702;51.046;5.184;2024-03-23T05:28:30;5.40;99.90
15203;DHT22;7702;51.046;5.184;2024-03-23T05:30:56;5.40;99.90
15203;DHT22;7702;51.046;5.184;2024-03-23T05:33:24;5.50;99.90
15203;DHT22;7702;51.046;5.184;2024-03-23T05:36:00;5.60;99.90
15203;DHT22;7702;51.046;5.184;2024-03-23T05:38:26;5.60;99.90
15203;DHT22;7702;51.046;5.184;2024-03-23T05:40:56;5.70;99.90
15203;DHT22;7702;51.046;5.184;2024-03-23T05:43:23;5.70;99.90
15203;DHT22;7702;51.046;5.184;2024-03-23T05:45:55;5.80;99.90
15203;DHT22;7702;51.046;5.184;2024-03-23T05:48:22;5.70;99.90
15203;DHT22;7702;51.046;5.184;2024-03-23T05:50:51;5.80;99.90
15203;DHT22;7702;51.046;5.184;2024-03-23T05:53:18;5.80;99.90
15203;DHT22;7702;51.046;5.184;2024-03-23T05:55:44;5.80;99.90
15203;DHT22;7702;51.046;5.184;2024-03-23T05:58:10;5.80;99.90
15203;DHT22;7702;51.046;5.184;2024-03-23T06:00:36;5.80;99.90
15203;DHT22;7702;51.046;5.184;2024-03-23T06:03:01;5.80;99.90
15203;DHT22;7702;51.046;5.184;2024-03-23T06:05:27;5.70;99.90
15203;DHT22;7702;51.046;5.184;2024-03-23T06:07:53;5.70;99.90
15203;DHT22;7702;51.046;5.184;2024-03-23T06:10:19;5.70;99.90
15203;DHT22;7702;51.046;5.184;2024-03-23T06:12:46;5.70;99.90
15203;DHT22;7702;51.046;5.184;2024-03-23T06:15:12;5.60;99.90
15203;DHT22;7702;51.046;5.184;2024-03-23T06:17:38;5.50;99.90
15203;DHT22;7702;51.046;5.184;2024-03-23T06:20:04;5.50;99.90
15203;DHT22;7702;51.046;5.184;2024-03-23T06:22:32;5.50;99.90
15203;DHT22;7702;51.046;5.184;2024-03-23T06:24:57;5.40;99.90
15203;DHT22;7702;51.046;5.184;2024-03-23T06:27:23;5.50;99.90
15203;DHT22;7702;51.046;5.184;2024-03-23T06:29:49;5.60;99.90
15203;DHT22;7702;51.046;5.184;2024-03-23T06:32:14;5.70;99.90
15203;DHT22;7702;51.046;5.184;2024-03-23T06:34:43;5.80;99.90
15203;DHT22;7702;51.046;5.184;2024-03-23T06:37:09;5.90;99.90
15203;DHT22;7702;51.046;5.184;2024-03-23T06:39:38;6.00;99.90
15203;DHT22;7702;51.046;5.184;2024-03-23T06:42:04;6.20;99.90
15203;DHT22;7702;51.046;5.184;2024-03-23T06:44:30;6.40;99.90
15203;DHT22;7702;51.046;5.184;2024-03-23T06:46:56;6.50;99.90
15203;DHT22;7702;51.046;5.184;2024-03-23T06:49:25;6.60;99.90
15203;DHT22;7702;51.046;5.184;2024-03-23T06:51:51;6.60;99.90
15203;DHT22;7702;51.046;5.184;2024-03-23T06:54:17;6.70;99.90
15203;DHT22;7702;51.046;5.184;2024-03-23T06:56:44;6.80;99.90
15203;DHT22;7702;51.046;5.184;2024-03-23T06:59:10;6.70;99.90
15203;DHT22;7702;51.046;5.184;2024-03-23T07:01:36;6.70;99.90
15203;DHT22;7702;51.046;5.184;2024-03-23T07:04:02;6.70;99.90
15203;DHT22;7702;51.046;5.184;2024-03-23T07:06:29;6.70;99.90
15203;DHT22;7702;51.046;5.184;2024-03-23T07:08:55;6.80;99.90
15203;DHT22;7702;51.046;5.184;2024-03-23T07:11:21;6.90;99.90
15203;DHT22;7702;51.046;5.184;2024-03-23T07:13:50;7.10;99.90
15203;DHT22;7702;51.046;5.184;2024-03-23T07:16:16;7.30;99.90
15203;DHT22;7702;51.046;5.184;2024-03-23T07:18:42;7.30;99.90
15203;DHT22;7702;51.046;5.184;2024-03-23T07:21:08;7.30;99.90
15203;DHT22;7702;51.046;5.184;2024-03-23T07:23:34;7.30;99.90
15203;DHT22;7702;51.046;5.184;2024-03-23T07:26:04;7.30;99.90
15203;DHT22;7702;51.046;5.184;2024-03-23T07:28:31;7.20;99.90
15203;DHT22;7702;51.046;5.184;2024-03-23T07:31:04;7.30;99.90
15203;DHT22;7702;51.046;5.184;2024-03-23T07:33:30;7.30;99.90
15203;DHT22;7702;51.046;5.184;2024-03-23T07:35:56;7.40;99.90
15203;DHT22;7702;51.046;5.184;2024-03-23T07:38:22;7.40;99.90
15203;DHT22;7702;51.046;5.184;2024-03-23T07:40:47;7.40;99.90
15203;DHT22;7702;51.046;5.184;2024-03-23T07:43:19;7.40;99.90
15203;DHT22;7702;51.046;5.184;2024-03-23T07:45:52;7.30;99.90
15203;DHT22;7702;51.046;5.184;2024-03-23T07:48:18;7.50;99.90
15203;DHT22;7702;51.046;5.184;2024-03-23T07:50:44;7.70;99.90
15203;DHT22;7702;51.046;5.184;2024-03-23T07:53:09;8.00;99.90
15203;DHT22;7702;51.046;5.184;2024-03-23T07:55:35;8.10;99.90
15203;DHT22;7702;51.046;5.184;2024-03-23T07:58:01;8.20;99.90
15203;DHT22;7702;51.046;5.184;2024-03-23T08:00:26;8.30;99.90
15203;DHT22;7702;51.046;5.184;2024-03-23T08:02:52;8.30;99.90
15203;DHT22;7702;51.046;5.184;2024-03-23T08:05:17;8.50;99.90
15203;DHT22;7702;51.046;5.184;2024-03-23T08:07:43;8.70;99.90
15203;DHT22;7702;51.046;5.184;2024-03-23T08:10:09;8.70;99.90
15203;DHT22;7702;51.046;5.184;2024-03-23T08:12:35;8.80;99.90
15203;DHT22;7702;51.046;5.184;2024-03-23T08:15:01;8.90;97.00
15203;DHT22;7702;51.046;5.184;2024-03-23T08:17:28;8.80;93.10
15203;DHT22;7702;51.046;5.184;2024-03-23T08:19:53;9.00;99.50
15203;DHT22;7702;51.046;5.184;2024-03-23T08:22:19;9.30;99.90
15203;DHT22;7702;51.046;5.184;2024-03-23T08:24:44;9.50;80.20
15203;DHT22;7702;51.046;5.184;2024-03-23T08:27:10;9.40;88.30
15203;DHT22;7702;51.046;5.184;2024-03-23T08:29:36;9.50;77.00
15203;DHT22;7702;51.046;5.184;2024-03-23T08:32:01;9.50;76.90
15203;DHT22;7702;51.046;5.184;2024-03-23T08:34:27;9.60;62.70
15203;DHT22;7702;51.046;5.184;2024-03-23T08:36:53;9.30;47.90
15203;DHT22;7702;51.046;5.184;2024-03-23T08:39:18;9.10;63.90
15203;DHT22;7702;51.046;5.184;2024-03-23T08:41:44;9.20;82.40
15203;DHT22;7702;51.046;5.184;2024-03-23T08:44:11;9.10;65.30
15203;DHT22;7702;51.046;5.184;2024-03-23T08:46:37;9.30;67.60
15203;DHT22;7702;51.046;5.184;2024-03-23T08:49:03;9.00;69.80
15203;DHT22;7702;51.046;5.184;2024-03-23T08:51:28;9.10;70.50
15203;DHT22;7702;51.046;5.184;2024-03-23T08:53:54;9.10;71.30
15203;DHT22;7702;51.046;5.184;2024-03-23T08:56:20;9.10;72.90
15203;DHT22;7702;51.046;5.184;2024-03-23T08:58:45;9.00;67.70
15203;DHT22;7702;51.046;5.184;2024-03-23T09:01:12;8.80;60.60
15203;DHT22;7702;51.046;5.184;2024-03-23T09:03:41;9.10;78.00
15203;DHT22;7702;51.046;5.184;2024-03-23T09:06:12;9.30;63.50
15203;DHT22;7702;51.046;5.184;2024-03-23T09:08:38;9.50;57.80
15203;DHT22;7702;51.046;5.184;2024-03-23T09:11:09;9.30;50.20
15203;DHT22;7702;51.046;5.184;2024-03-23T09:13:36;9.50;53.70
15203;DHT22;7702;51.046;5.184;2024-03-23T09:16:03;9.60;39.80
15203;DHT22;7702;51.046;5.184;2024-03-23T09:18:32;10.00;35.80
15203;DHT22;7702;51.046;5.184;2024-03-23T09:20:58;10.00;19.30
15203;DHT22;7702;51.046;5.184;2024-03-23T09:23:24;10.10;30.60
15203;DHT22;7702;51.046;5.184;2024-03-23T09:25:49;10.00;21.80
15203;DHT22;7702;51.046;5.184;2024-03-23T09:28:15;9.40;17.90
15203;DHT22;7702;51.046;5.184;2024-03-23T09:30:41;9.40;25.10
15203;DHT22;7702;51.046;5.184;2024-03-23T09:33:12;9.40;21.90
15203;DHT22;7702;51.046;5.184;2024-03-23T09:35:41;9.10;18.00
15203;DHT22;7702;51.046;5.184;2024-03-23T09:38:07;9.00;28.80
15203;DHT22;7702;51.046;5.184;2024-03-23T09:40:43;8.80;26.70
15203;DHT22;7702;51.046;5.184;2024-03-23T09:43:09;8.80;37.90
15203;DHT22;7702;51.046;5.184;2024-03-23T09:45:41;9.00;49.30
15203;DHT22;7702;51.046;5.184;2024-03-23T09:48:09;9.40;44.00
15203;DHT22;7702;51.046;5.184;2024-03-23T09:50:45;9.80;26.00
15203;DHT22;7702;51.046;5.184;2024-03-23T09:53:12;10.20;8.40
15203;DHT22;7702;51.046;5.184;2024-03-23T09:55:39;10.60;4.60
15203;DHT22;7702;51.046;5.184;2024-03-23T09:58:05;10.50;1.60
15203;DHT22;7702;51.046;5.184;2024-03-23T10:00:35;10.70;1.00
15203;DHT22;7702;51.046;5.184;2024-03-23T10:03:01;11.10;1.00
15203;DHT22;7702;51.046;5.184;2024-03-23T10:05:28;11.10;1.00
15203;DHT22;7702;51.046;5.184;2024-03-23T10:07:55;11.50;1.00
15203;DHT22;7702;51.046;5.184;2024-03-23T10:10:21;11.70;1.00
15203;DHT22;7702;51.046;5.184;2024-03-23T10:12:50;11.80;1.00
15203;DHT22;7702;51.046;5.184;2024-03-23T10:15:25;11.60;1.00
15203;DHT22;7702;51.046;5.184;2024-03-23T10:17:51;11.60;1.00
15203;DHT22;7702;51.046;5.184;2024-03-23T10:20:22;11.70;1.00
15203;DHT22;7702;51.046;5.184;2024-03-23T10:22:51;11.30;1.00
15203;DHT22;7702;51.046;5.184;2024-03-23T10:25:17;11.50;1.00
15203;DHT22;7702;51.046;5.184;2024-03-23T10:27:43;11.70;1.00
15203;DHT22;7702;51.046;5.184;2024-03-23T10:30:13;11.70;1.00
15203;DHT22;7702;51.046;5.184;2024-03-23T10:32:42;10.80;1.00
15203;DHT22;7702;51.046;5.184;2024-03-23T10:35:19;8.70;24.60
15203;DHT22;7702;51.046;5.184;2024-03-23T10:37:45;7.40;53.90
15203;DHT22;7702;51.046;5.184;2024-03-23T10:40:16;6.80;79.80
15203;DHT22;7702;51.046;5.184;2024-03-23T10:42:42;6.70;91.10
15203;DHT22;7702;51.046;5.184;2024-03-23T10:45:08;6.50;90.60
15203;DHT22;7702;51.046;5.184;2024-03-23T10:47:37;6.60;98.00
15203;DHT22;7702;51.046;5.184;2024-03-23T10:50:06;6.70;99.90
15203;DHT22;7702;51.046;5.184;2024-03-23T10:52:33;6.80;99.90
15203;DHT22;7702;51.046;5.184;2024-03-23T10:55:04;7.00;96.60
15203;DHT22;7702;51.046;5.184;2024-03-23T10:57:40;6.90;87.80
15203;DHT22;7702;51.046;5.184;2024-03-23T11:00:07;6.80;99.60
15203;DHT22;7702;51.046;5.184;2024-03-23T11:02:34;6.40;99.40
15203;DHT22;7702;51.046;5.184;2024-03-23T11:04:59;5.90;92.00
15203;DHT22;7702;51.046;5.184;2024-03-23T11:07:32;5.80;93.20
15203;DHT22;7702;51.046;5.184;2024-03-23T11:09:59;5.80;99.90
15203;DHT22;7702;51.046;5.184;2024-03-23T11:12:31;6.00;99.90
15203;DHT22;7702;51.046;5.184;2024-03-23T11:15:06;6.10;99.90
15203;DHT22;7702;51.046;5.184;2024-03-23T11:17:37;6.20;99.90
15203;DHT22;7702;51.046;5.184;2024-03-23T11:20:04;6.30;99.90
15203;DHT22;7702;51.046;5.184;2024-03-23T11:22:44;6.30;99.90
15203;DHT22;7702;51.046;5.184;2024-03-23T11:25:25;6.60;99.90
15203;DHT22;7702;51.046;5.184;2024-03-23T11:27:54;6.90;99.90
15203;DHT22;7702;51.046;5.184;2024-03-23T11:30:22;7.30;99.90
15203;DHT22;7702;51.046;5.184;2024-03-23T11:32:49;8.20;99.90
15203;DHT22;7702;51.046;5.184;2024-03-23T11:35:28;8.60;87.20
15203;DHT22;7702;51.046;5.184;2024-03-23T11:38:12;8.90;92.20
15203;DHT22;7702;51.046;5.184;2024-03-23T11:40:42;8.90;74.90
15203;DHT22;7702;51.046;5.184;2024-03-23T11:43:09;8.90;79.60
15203;DHT22;7702;51.046;5.184;2024-03-23T11:45:53;9.10;92.30
15203;DHT22;7702;51.046;5.184;2024-03-23T11:48:21;9.20;72.70
15203;DHT22;7702;51.046;5.184;2024-03-23T11:50:51;9.40;80.10
15203;DHT22;7702;51.046;5.184;2024-03-23T11:53:21;9.30;40.90
15203;DHT22;7702;51.046;5.184;2024-03-23T11:55:54;9.40;79.10
15203;DHT22;7702;51.046;5.184;2024-03-23T11:58:21;9.40;76.80
15203;DHT22;7702;51.046;5.184;2024-03-23T12:01:00;9.20;53.70
15203;DHT22;7702;51.046;5.184;2024-03-23T12:03:28;9.10;36.90
15203;DHT22;7702;51.046;5.184;2024-03-23T12:05:55;8.80;33.70
15203;DHT22;7702;51.046;5.184;2024-03-23T12:08:23;8.70;27.40
15203;DHT22;7702;51.046;5.184;2024-03-23T12:10:53;9.20;51.90
15203;DHT22;7702;51.046;5.184;2024-03-23T12:13:22;9.70;25.40
15203;DHT22;7702;51.046;5.184;2024-03-23T12:15:51;10.40;52.00
15203;DHT22;7702;51.046;5.184;2024-03-23T12:18:17;11.00;26.40
15203;DHT22;7702;51.046;5.184;2024-03-23T12:20:43;11.30;4.80
15203;DHT22;7702;51.046;5.184;2024-03-23T12:23:11;11.40;1.00
15203;DHT22;7702;51.046;5.184;2024-03-23T12:25:37;11.20;1.00
15203;DHT22;7702;51.046;5.184;2024-03-23T12:28:04;11.30;1.00
15203;DHT22;7702;51.046;5.184;2024-03-23T12:30:35;11.00;1.00
15203;DHT22;7702;51.046;5.184;2024-03-23T12:33:01;11.20;1.00
15203;DHT22;7702;51.046;5.184;2024-03-23T12:35:28;11.20;1.00
15203;DHT22;7702;51.046;5.184;2024-03-23T12:37:54;10.70;1.00
15203;DHT22;7702;51.046;5.184;2024-03-23T12:40:19;10.20;1.00
15203;DHT22;7702;51.046;5.184;2024-03-23T12:42:45;9.90;1.00
15203;DHT22;7702;51.046;5.184;2024-03-23T12:45:11;9.60;1.00
15203;DHT22;7702;51.046;5.184;2024-03-23T12:47:37;8.70;1.00
15203;DHT22;7702;51.046;5.184;2024-03-23T12:50:03;8.10;32.10
15203;DHT22;7702;51.046;5.184;2024-03-23T12:52:29;6.60;50.90
15203;DHT22;7702;51.046;5.184;2024-03-23T12:54:57;5.90;63.60
15203;DHT22;7702;51.046;5.184;2024-03-23T12:57:24;5.70;76.70
15203;DHT22;7702;51.046;5.184;2024-03-23T12:59:51;5.80;94.20
15203;DHT22;7702;51.046;5.184;2024-03-23T13:02:18;6.30;95.70
15203;DHT22;7702;51.046;5.184;2024-03-23T13:04:45;7.10;99.10
15203;DHT22;7702;51.046;5.184;2024-03-23T13:07:11;7.50;85.10
15203;DHT22;7702;51.046;5.184;2024-03-23T13:09:36;8.00;52.00
15203;DHT22;7702;51.046;5.184;2024-03-23T13:12:02;8.10;42.00
15203;DHT22;7702;51.046;5.184;2024-03-23T13:14:28;8.50;36.20
15203;DHT22;7702;51.046;5.184;2024-03-23T13:16:53;9.00;47.50
15203;DHT22;7702;51.046;5.184;2024-03-23T13:19:19;9.20;15.70
15203;DHT22;7702;51.046;5.184;2024-03-23T13:21:45;9.30;22.90
15203;DHT22;7702;51.046;5.184;2024-03-23T13:24:11;8.90;20.40
15203;DHT22;7702;51.046;5.184;2024-03-23T13:26:36;8.40;11.30
15203;DHT22;7702;51.046;5.184;2024-03-23T13:29:02;7.50;18.00
15203;DHT22;7702;51.046;5.184;2024-03-23T13:31:28;6.90;34.00
15203;DHT22;7702;51.046;5.184;2024-03-23T13:33:54;6.60;70.30
15203;DHT22;7702;51.046;5.184;2024-03-23T13:36:19;6.10;72.90
15203;DHT22;7702;51.046;5.184;2024-03-23T13:38:45;5.70;86.90
15203;DHT22;7702;51.046;5.184;2024-03-23T13:41:11;5.50;99.10
15203;DHT22;7702;51.046;5.184;2024-03-23T13:43:37;5.50;99.90
15203;DHT22;7702;51.046;5.184;2024-03-23T13:46:03;5.70;99.90
15203;DHT22;7702;51.046;5.184;2024-03-23T13:48:29;6.60;99.90
15203;DHT22;7702;51.046;5.184;2024-03-23T13:51:02;7.20;99.90
15203;DHT22;7702;51.046;5.184;2024-03-23T13:53:28;7.80;99.90
15203;DHT22;7702;51.046;5.184;2024-03-23T13:55:53;8.10;92.80
15203;DHT22;7702;51.046;5.184;2024-03-23T13:58:20;8.00;91.30
15203;DHT22;7702;51.046;5.184;2024-03-23T14:00:46;7.90;85.70
15203;DHT22;7702;51.046;5.184;2024-03-23T14:03:13;7.80;80.90
15203;DHT22;7702;51.046;5.184;2024-03-23T14:05:39;7.90;90.10
15203;DHT22;7702;51.046;5.184;2024-03-23T14:08:09;7.90;95.00
15203;DHT22;7702;51.046;5.184;2024-03-23T14:10:35;8.10;99.90
15203;DHT22;7702;51.046;5.184;2024-03-23T14:13:02;8.80;99.90
15203;DHT22;7702;51.046;5.184;2024-03-23T14:15:29;9.70;92.50
15203;DHT22;7702;51.046;5.184;2024-03-23T14:17:55;10.10;46.90
15203;DHT22;7702;51.046;5.184;2024-03-23T14:20:21;9.90;47.80
15203;DHT22;7702;51.046;5.184;2024-03-23T14:22:48;8.70;48.00
15203;DHT22;7702;51.046;5.184;2024-03-23T14:25:14;8.00;76.50
15203;DHT22;7702;51.046;5.184;2024-03-23T14:27:40;7.90;95.20
15203;DHT22;7702;51.046;5.184;2024-03-23T14:30:06;8.20;67.90
15203;DHT22;7702;51.046;5.184;2024-03-23T14:32:32;8.50;82.40
15203;DHT22;7702;51.046;5.184;2024-03-23T14:35:01;8.90;60.60
15203;DHT22;7702;51.046;5.184;2024-03-23T14:37:27;8.90;16.20
15203;DHT22;7702;51.046;5.184;2024-03-23T14:39:55;9.00;9.50
15203;DHT22;7702;51.046;5.184;2024-03-23T14:42:22;9.30;11.00
15203;DHT22;7702;51.046;5.184;2024-03-23T14:44:47;9.80;15.80
15203;DHT22;7702;51.046;5.184;2024-03-23T14:47:13;9.60;1.00
15203;DHT22;7702;51.046;5.184;2024-03-23T14:49:39;9.80;1.00
15203;DHT22;7702;51.046;5.184;2024-03-23T14:52:05;10.70;12.10
15203;DHT22;7702;51.046;5.184;2024-03-23T14:54:30;11.20;1.00
15203;DHT22;7702;51.046;5.184;2024-03-23T14:56:56;11.40;1.00
15203;DHT22;7702;51.046;5.184;2024-03-23T14:59:24;11.00;1.00
15203;DHT22;7702;51.046;5.184;2024-03-23T15:01:49;11.30;1.00
15203;DHT22;7702;51.046;5.184;2024-03-23T15:04:16;11.60;1.00
15203;DHT22;7702;51.046;5.184;2024-03-23T15:06:42;12.00;1.00
15203;DHT22;7702;51.046;5.184;2024-03-23T15:09:08;12.30;1.00
15203;DHT22;7702;51.046;5.184;2024-03-23T15:11:37;13.00;1.00
15203;DHT22;7702;51.046;5.184;2024-03-23T15:14:02;12.90;1.00
15203;DHT22;7702;51.046;5.184;2024-03-23T15:16:28;13.40;1.00
15203;DHT22;7702;51.046;5.184;2024-03-23T15:18:53;12.90;1.00
15203;DHT22;7702;51.046;5.184;2024-03-23T15:21:19;13.40;1.00
15203;DHT22;7702;51.046;5.184;2024-03-23T15:23:47;13.20;1.00
15203;DHT22;7702;51.046;5.184;2024-03-23T15:26:13;13.40;1.00
15203;DHT22;7702;51.046;5.184;2024-03-23T15:28:39;12.90;1.00
15203;DHT22;7702;51.046;5.184;2024-03-23T15:31:23;12.30;1.00
15203;DHT22;7702;51.046;5.184;2024-03-23T15:33:49;12.00;1.00
15203;DHT22;7702;51.046;5.184;2024-03-23T15:36:15;11.20;1.00
15203;DHT22;7702;51.046;5.184;2024-03-23T15:38:40;11.10;1.00
15203;DHT22;7702;51.046;5.184;2024-03-23T15:41:06;11.00;1.00
15203;DHT22;7702;51.046;5.184;2024-03-23T15:43:33;10.90;1.00
15203;DHT22;7702;51.046;5.184;2024-03-23T15:46:00;10.90;1.00
15203;DHT22;7702;51.046;5.184;2024-03-23T15:48:26;10.70;1.00
15203;DHT22;7702;51.046;5.184;2024-03-23T15:50:59;10.50;1.00
15203;DHT22;7702;51.046;5.184;2024-03-23T15:53:26;10.60;1.00
15203;DHT22;7702;51.046;5.184;2024-03-23T15:55:56;10.60;1.00
15203;DHT22;7702;51.046;5.184;2024-03-23T15:58:22;10.40;1.00
15203;DHT22;7702;51.046;5.184;2024-03-23T16:01:08;10.20;1.00
15203;DHT22;7702;51.046;5.184;2024-03-23T16:03:37;10.10;1.00
15203;DHT22;7702;51.046;5.184;2024-03-23T16:06:04;10.00;1.00
15203;DHT22;7702;51.046;5.184;2024-03-23T16:08:30;9.90;1.00
15203;DHT22;7702;51.046;5.184;2024-03-23T16:11:04;9.60;1.00
15203;DHT22;7702;51.046;5.184;2024-03-23T16:13:30;9.60;1.00
15203;DHT22;7702;51.046;5.184;2024-03-23T16:16:00;9.40;1.00
15203;DHT22;7702;51.046;5.184;2024-03-23T16:18:29;9.80;1.00
15203;DHT22;7702;51.046;5.184;2024-03-23T16:20:56;10.60;1.00
15203;DHT22;7702;51.046;5.184;2024-03-23T16:23:22;11.20;1.00
15203;DHT22;7702;51.046;5.184;2024-03-23T16:25:49;10.90;1.00
15203;DHT22;7702;51.046;5.184;2024-03-23T16:28:25;10.90;1.00
15203;DHT22;7702;51.046;5.184;2024-03-23T16:30:58;11.00;1.00
15203;DHT22;7702;51.046;5.184;2024-03-23T16:33:25;11.40;1.00
15203;DHT22;7702;51.046;5.184;2024-03-23T16:38:26;12.90;1.00
15203;DHT22;7702;51.046;5.184;2024-03-23T16:41:03;12.30;1.00
15203;DHT22;7702;51.046;5.184;2024-03-23T16:43:30;12.50;1.00
15203;DHT22;7702;51.046;5.184;2024-03-23T16:46:01;12.60;1.00
15203;DHT22;7702;51.046;5.184;2024-03-23T16:48:29;12.40;1.00
15203;DHT22;7702;51.046;5.184;2024-03-23T16:51:02;11.30;1.00
15203;DHT22;7702;51.046;5.184;2024-03-23T16:53:29;10.80;1.00
15203;DHT22;7702;51.046;5.184;2024-03-23T16:58:29;9.90;1.00
15203;DHT22;7702;51.046;5.184;2024-03-23T17:00:56;9.50;1.00